Saint Paul, Oregon
Current Conditions -  °F | °C
As of 6:53 PM on Monday 26 Jan 2015 (Local Time) from KMMV Reporting Station
Moderate Fog Moderate Fog  
Wind Chill: 45°   Ceiling: 200
Heat Index: 45°   Visibility: 0.25mi
Dew Point: 44°   Wind: 0mph
Humidity: 97%   Direction: NA
Pressure: 29.99"   Gusts: NA
Location:  45.21°N, 122.98°W
Report Text: KMMV 270253Z AUTO 00000KT 1/4SM FG VV002 07/07 A2999 RMK AO2 SLP156 T00720067 53000
Loading
Personal Weather Stations






























Interactive Weather Map New forecast layout! Learn more

10-Day Weather Forecast

Advertisements
Track Severe Weather on mobile